Time;durP1;ratioP1;P1;durP2;ratioP2;P2;SDS_P1;SDS_P2;PMS_P1;PMS_P2;Temp;Humidity;BMP_temperature;BMP_pressure;BME280_temperature;BME280_humidity;BME280_pressure;Samples;Min_cycle;Max_cycle;Signal;HPM_P1;HPM_P2
2021/12/30 00:00:30;;;;;;;142.95;69.12;;;;;;;0.23;90.64;97674.11;1750990;80;21078;-57
2021/12/30 00:02:59;;;;;;;139.12;70.20;;;;;;;0.11;90.64;97678.56;1750794;80;21444;-57
2021/12/30 00:05:26;;;;;;;141.47;69.80;;;;;;;0.04;90.83;97689.80;1760297;80;21389;-58
2021/12/30 00:07:53;;;;;;;130.63;64.17;;;;;;;-0.01;90.87;97685.12;1737923;81;20976;-57
2021/12/30 00:10:20;;;;;;;141.18;66.62;;;;;;;-0.04;90.39;97687.72;1740180;81;21003;-57
2021/12/30 00:12:47;;;;;;;125.30;63.63;;;;;;;-0.06;90.47;97691.13;1768790;80;21467;-56
2021/12/30 00:15:14;;;;;;;129.78;66.72;;;;;;;-0.06;90.14;97695.64;1765094;80;21415;-57
2021/12/30 00:17:41;;;;;;;131.78;65.42;;;;;;;-0.11;89.99;97704.27;1746587;82;22189;-57
2021/12/30 00:20:10;;;;;;;131.82;66.42;;;;;;;-0.15;90.33;97703.09;1743982;81;21473;-57
2021/12/30 00:22:37;;;;;;;125.58;60.03;;;;;;;-0.15;89.99;97704.95;1711978;83;21464;-58
2021/12/30 00:25:06;;;;;;;112.92;58.65;;;;;;;-0.16;89.87;97709.98;1735343;82;21421;-57
2021/12/30 00:27:33;;;;;;;124.78;61.73;;;;;;;-0.23;89.77;97706.03;1735736;82;27479;-57
2021/12/30 00:30:00;;;;;;;110.63;56.42;;;;;;;-0.26;90.51;97706.97;1735233;82;21251;-57
2021/12/30 00:32:27;;;;;;;124.47;62.15;;;;;;;-0.25;91.87;97711.28;1735637;82;21017;-58
2021/12/30 00:34:54;;;;;;;122.78;62.55;;;;;;;-0.19;91.77;97712.53;1735309;82;21504;-57
2021/12/30 00:37:21;;;;;;;127.20;65.35;;;;;;;-0.13;91.31;97717.00;1735580;82;21041;-57
2021/12/30 00:39:48;;;;;;;116.75;61.48;;;;;;;-0.09;91.39;97714.18;1734876;82;37620;-57
2021/12/30 00:42:15;;;;;;;129.03;62.67;;;;;;;-0.07;91.24;97718.80;1722709;82;21453;-57
2021/12/30 00:44:42;;;;;;;102.40;51.50;;;;;;;-0.07;91.37;97719.31;1723672;81;21055;-57
2021/12/30 00:47:09;;;;;;;109.92;57.53;;;;;;;-0.01;91.26;97707.24;1735650;82;21041;-57
2021/12/30 00:49:36;;;;;;;114.00;54.83;;;;;;;0.09;91.69;97712.61;1713329;83;21449;-57
2021/12/30 00:52:03;;;;;;;103.35;54.77;;;;;;;0.17;92.27;97722.95;1734566;82;21088;-57
2021/12/30 00:54:30;;;;;;;107.37;52.95;;;;;;;0.17;91.56;97717.62;1735203;81;21517;-57
2021/12/30 00:56:59;;;;;;;101.55;51.55;;;;;;;0.21;91.22;97716.98;1727461;82;21008;-57
2021/12/30 00:59:26;;;;;;;115.85;53.15;;;;;;;0.21;90.73;97711.66;1716794;83;28595;-57
2021/12/30 01:01:53;;;;;;;102.00;51.35;;;;;;;0.15;90.43;97719.70;1716790;83;21024;-57
2021/12/30 01:04:21;;;;;;;104.15;51.85;;;;;;;0.12;90.49;97716.16;1738474;82;21529;-57
2021/12/30 01:06:48;;;;;;;99.70;50.23;;;;;;;0.13;91.07;97720.45;1766779;80;21465;-57
2021/12/30 01:09:15;;;;;;;102.92;50.90;;;;;;;0.17;91.34;97725.13;1775996;80;21021;-57
2021/12/30 01:11:42;;;;;;;91.12;49.45;;;;;;;0.19;91.85;97721.72;1743027;81;21024;-57
2021/12/30 01:14:19;;;;;;;97.90;54.83;;;;;;;0.25;91.57;97729.34;1744247;81;21061;-57
2021/12/30 01:16:46;;;;;;;105.92;52.40;;;;;;;0.30;90.99;97742.02;1756892;80;21012;-57
2021/12/30 01:19:23;;;;;;;101.00;50.75;;;;;;;0.31;91.44;97746.30;1744492;81;20980;-57
2021/12/30 01:21:44;;;;;;;96.65;50.38;;;;;;;0.37;91.26;97742.77;1741383;82;21426;-58
2021/12/30 01:24:11;;;;;;;90.03;48.58;;;;;;;0.42;91.20;97741.05;1744435;81;21570;-57
2021/12/30 01:26:38;;;;;;;100.27;55.38;;;;;;;0.47;90.80;97745.20;1747286;81;21048;-57
2021/12/30 01:29:04;;;;;;;96.70;48.35;;;;;;;0.50;90.70;97743.94;1744590;81;21033;-57
2021/12/30 01:31:31;;;;;;;92.92;46.68;;;;;;;0.56;90.60;97741.73;1768293;80;21426;-57
2021/12/30 01:33:58;;;;;;;96.80;48.17;;;;;;;0.51;90.37;97742.91;1777058;80;21001;-57
2021/12/30 01:36:28;;;;;;;104.72;51.13;;;;;;;0.44;90.93;97733.66;1762502;80;20967;-58
2021/12/30 01:38:55;;;;;;;93.70;49.73;;;;;;;0.45;91.33;97732.63;1751171;82;21069;-57
2021/12/30 01:41:22;;;;;;;102.70;49.18;;;;;;;0.47;90.60;97741.73;1750985;80;20978;-57
2021/12/30 01:43:50;;;;;;;86.22;45.83;;;;;;;0.39;90.32;97736.69;1751190;81;21043;-57
2021/12/30 01:46:17;;;;;;;95.95;46.30;;;;;;;0.32;90.20;97740.75;1759862;80;20996;-57
2021/12/30 01:48:44;;;;;;;103.87;49.45;;;;;;;0.21;90.04;97746.30;1773422;80;21383;-57
2021/12/30 01:51:11;;;;;;;85.85;46.63;;;;;;;0.08;90.39;97742.93;1752697;80;21016;-57
2021/12/30 01:53:38;;;;;;;98.52;51.65;;;;;;;-0.01;90.34;97749.87;1744721;81;21068;-57
2021/12/30 01:56:05;;;;;;;98.78;49.35;;;;;;;-0.04;90.18;97751.65;1740550;81;20974;-57
2021/12/30 01:58:32;;;;;;;91.25;49.80;;;;;;;-0.11;90.07;97749.55;1775475;80;21426;-57
2021/12/30 02:00:59;;;;;;;93.45;48.10;;;;;;;-0.16;89.98;97760.06;1756799;80;21025;-57
2021/12/30 02:03:26;;;;;;;95.17;52.43;;;;;;;-0.19;90.34;97750.34;1739385;81;21052;-57
2021/12/30 02:05:53;;;;;;;100.53;52.23;;;;;;;-0.11;90.56;97751.41;1740050;81;21012;-57
2021/12/30 02:08:20;;;;;;;93.07;49.73;;;;;;;-0.04;90.79;97753.50;1739382;81;21325;-57
2021/12/30 02:10:49;;;;;;;99.47;57.45;;;;;;;-0.08;90.05;97750.98;1752552;80;20988;-57
2021/12/30 02:13:16;;;;;;;95.32;49.98;;;;;;;-0.11;90.33;97749.55;1739727;82;21012;-57
2021/12/30 02:15:44;;;;;;;96.87;49.98;;;;;;;-0.10;91.19;97747.19;1776579;80;21068;-57
2021/12/30 02:18:11;;;;;;;87.95;43.23;;;;;;;-0.06;91.57;97751.06;1751114;80;21055;-57
2021/12/30 02:20:57;;;;;;;86.75;43.63;;;;;;;-0.01;91.20;97742.39;1748660;82;21968;-57
2021/12/30 02:23:32;;;;;;;93.72;47.13;;;;;;;-0.07;90.36;97745.44;1735462;81;20965;-57
2021/12/30 02:26:03;;;;;;;97.22;47.00;;;;;;;-0.16;91.88;97744.08;1735216;82;21019;-57
2021/12/30 02:28:32;;;;;;;84.07;44.25;;;;;;;-0.13;92.22;97745.48;1735772;82;20965;-57
2021/12/30 02:31:03;;;;;;;75.40;41.90;;;;;;;-0.08;91.56;97749.66;1729564;81;21059;-57
2021/12/30 02:33:30;;;;;;;83.70;42.50;;;;;;;-0.04;92.47;97753.50;1710741;81;21060;-58
2021/12/30 02:35:57;;;;;;;98.30;46.02;;;;;;;-0.03;91.08;97751.94;1714784;82;20985;-59
2021/12/30 02:38:24;;;;;;;88.58;43.83;;;;;;;-0.01;92.13;97753.05;1713670;83;21008;-58
2021/12/30 02:40:54;;;;;;;76.97;38.20;;;;;;;-0.02;92.90;97745.58;1711136;83;21000;-58
2021/12/30 02:43:27;;;;;;;74.58;40.00;;;;;;;0.04;91.72;97746.56;1711412;83;21072;-58
2021/12/30 02:45:55;;;;;;;67.30;33.63;;;;;;;0.03;92.66;97745.45;1711488;82;21469;-58
2021/12/30 02:48:25;;;;;;;63.45;38.00;;;;;;;0.06;91.86;97744.48;1712468;83;21433;-59
2021/12/30 02:50:55;;;;;;;65.95;38.53;;;;;;;0.07;92.43;97750.11;1710429;82;20977;-58
2021/12/30 02:53:22;;;;;;;66.92;35.75;;;;;;;0.09;91.87;97745.92;1717273;83;21390;-58
2021/12/30 02:55:50;;;;;;;78.45;37.85;;;;;;;0.13;91.32;97746.58;1716842;82;21000;-58
2021/12/30 02:58:18;;;;;;;68.37;36.10;;;;;;;0.10;91.22;97749.69;1713912;83;21425;-58
2021/12/30 03:00:45;;;;;;;66.45;33.92;;;;;;;0.04;91.04;97737.23;1716801;82;20984;-58
2021/12/30 03:03:20;;;;;;;63.55;34.50;;;;;;;-0.01;91.24;97747.20;1717297;82;21063;-58
2021/12/30 03:05:48;;;;;;;70.65;37.67;;;;;;;0.01;92.60;97749.67;1716810;83;20977;-59
2021/12/30 03:08:15;;;;;;;67.42;37.70;;;;;;;0.09;92.84;97757.39;1713149;82;21056;-58
2021/12/30 03:10:42;;;;;;;75.42;42.45;;;;;;;0.15;92.87;97750.34;1712980;82;21392;-58
2021/12/30 03:13:10;;;;;;;75.47;42.05;;;;;;;0.16;92.51;97747.98;1712706;82;21421;-58
2021/12/30 03:15:37;;;;;;;82.02;42.40;;;;;;;0.18;92.52;97749.93;1712363;83;21462;-58
2021/12/30 03:18:04;;;;;;;81.70;39.48;;;;;;;0.23;92.26;97743.41;1715473;82;21020;-58
2021/12/30 03:20:33;;;;;;;72.42;36.80;;;;;;;0.25;92.23;97742.14;1717039;82;21012;-58
2021/12/30 03:23:00;;;;;;;83.35;41.70;;;;;;;0.26;91.94;97734.47;1712454;82;21033;-58
2021/12/30 03:25:27;;;;;;;63.28;35.00;;;;;;;0.31;92.09;97737.79;1711104;83;20981;-58
2021/12/30 03:27:53;;;;;;;60.40;31.93;;;;;;;0.31;92.02;97748.45;1710958;82;21421;-58
2021/12/30 03:30:20;;;;;;;61.40;33.50;;;;;;;0.36;92.15;97754.47;1712384;83;21046;-58
2021/12/30 03:32:47;;;;;;;61.75;34.30;;;;;;;0.38;92.34;97759.05;1711282;83;21012;-58
2021/12/30 03:35:14;;;;;;;57.67;33.38;;;;;;;0.42;92.33;97762.38;1711341;82;21367;-58
2021/12/30 03:37:41;;;;;;;75.45;37.25;;;;;;;0.34;92.72;97768.52;1711185;83;21417;-58
2021/12/30 03:40:12;;;;;;;56.23;30.00;;;;;;;0.39;92.76;97769.49;1711184;83;21020;-58
2021/12/30 03:42:39;;;;;;;57.13;34.33;;;;;;;0.45;91.92;97770.47;1715680;82;21007;-59
2021/12/30 03:45:07;;;;;;;58.20;32.63;;;;;;;0.47;91.49;97777.20;1717101;82;21028;-58
2021/12/30 03:47:41;;;;;;;67.03;36.00;;;;;;;0.44;91.41;97778.17;1715504;83;21179;-59
2021/12/30 03:50:10;;;;;;;49.77;25.25;;;;;;;0.43;91.82;97786.69;1713182;81;20980;-58
2021/12/30 03:52:38;;;;;;;65.40;29.90;;;;;;;0.52;91.54;97780.03;1714851;82;21024;-59
2021/12/30 03:55:07;;;;;;;64.80;35.98;;;;;;;0.67;91.51;97787.65;1717249;82;21063;-58
2021/12/30 03:57:34;;;;;;;58.87;32.28;;;;;;;0.71;91.83;97793.38;1707220;83;21465;-58
2021/12/30 04:00:01;;;;;;;62.50;33.95;;;;;;;0.70;92.12;97800.56;1711077;81;21397;-58
2021/12/30 04:02:28;;;;;;;59.15;32.28;;;;;;;0.80;92.00;97801.38;1711501;83;21412;-58
2021/12/30 04:04:54;;;;;;;38.75;18.62;;;;;;;0.84;91.55;97810.03;1711380;83;20993;-58
2021/12/30 04:07:21;;;;;;;48.05;23.05;;;;;;;0.90;91.63;97807.00;1714622;82;21067;-58
2021/12/30 04:09:48;;;;;;;56.55;32.85;;;;;;;1.03;91.81;97809.52;1717035;83;21003;-59
2021/12/30 04:12:17;;;;;;;49.83;29.18;;;;;;;1.13;91.75;97815.67;1713525;82;21345;-58
2021/12/30 04:14:44;;;;;;;47.13;25.57;;;;;;;1.11;91.51;97814.56;1712297;83;21072;-58
2021/12/30 04:17:11;;;;;;;63.83;37.65;;;;;;;1.04;91.15;97811.67;1714120;82;21064;-58
2021/12/30 04:19:38;;;;;;;56.45;32.35;;;;;;;1.01;91.37;97811.58;1717133;82;21004;-58
2021/12/30 04:22:04;;;;;;;48.13;26.25;;;;;;;1.00;91.53;97804.62;1717099;82;21448;-59
2021/12/30 04:24:31;;;;;;;44.48;24.98;;;;;;;0.98;91.60;97814.70;1716946;82;21512;-58
2021/12/30 04:26:58;;;;;;;53.73;28.80;;;;;;;;;;1716318;82;21060;-58
2021/12/30 04:29:25;;;;;;;58.90;31.52;;;;;;;0.96;91.36;97811.97;1716978;82;21138;-58
2021/12/30 04:31:52;;;;;;;60.00;33.50;;;;;;;0.91;91.24;97822.48;1714911;82;21417;-58
2021/12/30 04:34:19;;;;;;;63.17;34.48;;;;;;;0.82;91.02;97828.63;1716939;82;21076;-58
2021/12/30 04:36:46;;;;;;;59.65;34.75;;;;;;;0.77;91.12;97829.80;1715717;82;21247;-58
2021/12/30 04:39:13;;;;;;;60.10;31.15;;;;;;;0.77;91.01;97837.32;1711315;83;21052;-58
2021/12/30 04:41:40;;;;;;;57.90;32.30;;;;;;;0.80;90.90;97834.72;1710847;82;21048;-58
2021/12/30 04:44:07;;;;;;;58.92;31.40;;;;;;;0.72;90.69;97843.82;1711211;83;21474;-58
2021/12/30 04:46:36;;;;;;;53.05;31.57;;;;;;;0.68;90.72;97849.28;1715969;82;21472;-58
2021/12/30 04:49:03;;;;;;;52.60;30.23;;;;;;;0.68;91.17;97853.80;1709476;83;21423;-58
2021/12/30 04:51:30;;;;;;;53.48;30.45;;;;;;;0.75;91.37;97855.38;1715338;81;21008;-58
2021/12/30 04:53:57;;;;;;;50.58;30.60;;;;;;;0.76;91.02;97854.33;1716142;83;21511;-58
2021/12/30 04:56:24;;;;;;;50.12;29.60;;;;;;;0.76;90.95;97864.19;1716023;83;21028;-58
2021/12/30 04:58:50;;;;;;;51.42;26.77;;;;;;;0.77;91.04;97869.33;1714327;83;21024;-58
2021/12/30 05:01:18;;;;;;;42.93;25.12;;;;;;;0.74;91.09;97864.41;1714118;82;21409;-58
2021/12/30 05:03:44;;;;;;;49.88;27.02;;;;;;;0.75;90.98;97867.37;1711216;83;20962;-59
2021/12/30 05:06:11;;;;;;;50.17;28.38;;;;;;;0.70;90.92;97863.23;1713992;83;21473;-58
2021/12/30 05:08:38;;;;;;;57.73;32.48;;;;;;;0.66;91.60;97885.22;1717302;83;21012;-58
2021/12/30 05:11:05;;;;;;;51.53;29.42;;;;;;;0.67;92.25;97877.52;1716875;82;21083;-59
2021/12/30 05:13:32;;;;;;;65.45;35.23;;;;;;;0.75;92.31;97882.56;1713699;83;21035;-58
2021/12/30 05:15:59;;;;;;;65.25;33.90;;;;;;;0.76;92.18;97889.01;1711388;82;20997;-59
2021/12/30 05:18:33;;;;;;;60.23;36.75;;;;;;;0.77;91.77;97881.33;1711587;83;20976;-58
2021/12/30 05:21:02;;;;;;;56.65;31.93;;;;;;;0.77;91.97;97880.00;1711040;83;21429;-58
2021/12/30 05:23:29;;;;;;;;;;;;;;;0.82;91.48;97873.98;1718949;82;21301;-59
2021/12/30 05:25:56;;;;;;;62.98;34.50;;;;;;;0.77;91.13;97863.15;1716903;82;21433;-58
2021/12/30 05:28:23;;;;;;;53.60;31.93;;;;;;;0.72;91.25;97864.34;1717349;83;21075;-59
2021/12/30 05:30:50;;;;;;;51.77;29.30;;;;;;;0.70;91.22;97859.23;1713981;82;21501;-58
2021/12/30 05:33:17;;;;;;;65.97;35.13;;;;;;;0.76;91.84;97863.67;1711491;83;21017;-59
2021/12/30 05:35:44;;;;;;;65.62;36.50;;;;;;;0.78;91.79;97860.28;1714892;82;20988;-58
2021/12/30 05:38:14;;;;;;;65.80;36.48;;;;;;;0.78;92.82;97862.14;1717169;82;22025;-58
2021/12/30 05:40:40;;;;;;;75.15;40.10;;;;;;;0.80;92.76;97864.88;1713895;82;21052;-58
2021/12/30 05:43:07;;;;;;;66.75;39.50;;;;;;;0.84;92.60;97870.57;1711553;83;20992;-58
2021/12/30 05:45:34;;;;;;;65.60;36.42;;;;;;;0.90;92.36;97871.03;1714466;82;21643;-58
2021/12/30 05:48:01;;;;;;;74.05;43.08;;;;;;;0.93;91.58;97880.44;1715402;82;22074;-59
2021/12/30 05:50:31;;;;;;;70.83;39.65;;;;;;;0.82;92.34;97879.32;1720250;81;21402;-58
2021/12/30 05:52:58;;;;;;;79.17;42.03;;;;;;;0.86;92.32;97891.72;1712085;82;21025;-58
2021/12/30 05:55:25;;;;;;;75.37;40.40;;;;;;;0.83;92.50;97892.95;1711446;82;21064;-58
2021/12/30 05:57:54;;;;;;;74.95;37.80;;;;;;;0.88;92.30;97894.45;1712224;82;21009;-58
2021/12/30 06:00:22;;;;;;;70.65;36.90;;;;;;;0.90;92.24;97888.38;1716785;82;21080;-58
2021/12/30 06:02:50;;;;;;;73.45;41.80;;;;;;;0.93;91.55;97875.09;1717133;83;21307;-58
2021/12/30 06:05:17;;;;;;;67.67;37.40;;;;;;;0.85;91.15;97885.53;1714061;82;21016;-59
2021/12/30 06:07:44;;;;;;;62.30;36.33;;;;;;;0.73;91.50;97875.31;1716302;82;20953;-58
2021/12/30 06:10:11;;;;;;;105.27;56.95;;;;;;;0.74;91.31;97891.61;1711890;82;20997;-58
2021/12/30 06:12:38;;;;;;;79.50;43.33;;;;;;;0.82;92.27;97898.00;1713927;82;21040;-58
2021/12/30 06:15:07;;;;;;;144.25;79.53;;;;;;;0.92;92.31;97897.48;1751719;80;21396;-58
2021/12/30 06:17:35;;;;;;;141.53;89.10;;;;;;;1.02;92.69;97893.27;1732684;82;21422;-58
2021/12/30 06:20:04;;;;;;;169.55;99.28;;;;;;;1.06;92.60;97893.13;1711056;82;20990;-58
2021/12/30 06:22:31;;;;;;;107.40;65.72;;;;;;;1.09;92.49;97898.53;1715215;82;21000;-58
2021/12/30 06:24:57;;;;;;;86.00;56.40;;;;;;;1.15;92.33;97909.66;1715361;82;21457;-57
2021/12/30 06:27:25;;;;;;;67.32;41.13;;;;;;;1.23;92.19;97909.38;1714880;82;21733;-58
2021/12/30 06:29:51;;;;;;;62.45;38.15;;;;;;;1.26;92.04;97909.44;1717088;82;21020;-58
2021/12/30 06:32:18;;;;;;;58.55;33.42;;;;;;;1.31;91.84;97914.94;1717213;82;21010;-58
2021/12/30 06:34:45;;;;;;;57.90;32.85;;;;;;;1.29;91.60;97909.83;1716836;82;20961;-58
2021/12/30 06:37:12;;;;;;;65.05;32.58;;;;;;;1.32;91.57;97918.72;1715387;82;21000;-58
2021/12/30 06:39:39;;;;;;;60.75;31.97;;;;;;;1.37;91.43;97929.55;1713123;82;21999;-58
2021/12/30 06:42:06;;;;;;;86.53;50.05;;;;;;;1.29;90.99;97930.38;1712185;83;21074;-58
2021/12/30 06:44:33;;;;;;;63.90;40.17;;;;;;;1.25;91.09;97935.84;1713077;83;21008;-58
2021/12/30 06:47:02;;;;;;;101.95;63.28;;;;;;;1.23;91.12;97935.25;1714390;82;21052;-58
2021/12/30 06:49:36;;;;;;;138.82;72.80;;;;;;;1.17;91.70;97938.28;1713630;83;26931;-58
2021/12/30 06:52:00;;;;;;;144.17;82.55;;;;;;;1.13;92.30;97938.44;1710305;81;21421;-58
2021/12/30 06:54:27;;;;;;;170.35;100.35;;;;;;;1.18;92.27;97953.25;1711144;82;22134;-59
2021/12/30 06:56:55;;;;;;;151.20;98.30;;;;;;;1.24;92.04;97954.23;1712789;82;21012;-58
2021/12/30 06:59:22;;;;;;;98.62;53.80;;;;;;;1.29;91.67;97954.40;1711456;83;21488;-58
2021/12/30 07:01:49;;;;;;;74.17;42.58;;;;;;;1.32;91.54;97950.75;1711462;82;21058;-58
2021/12/30 07:04:16;;;;;;;75.72;40.78;;;;;;;1.33;91.20;97956.91;1717325;82;21058;-58
2021/12/30 07:06:43;;;;;;;71.90;39.83;;;;;;;1.34;91.27;97955.87;1716913;82;21048;-58
2021/12/30 07:09:10;;;;;;;63.63;37.98;;;;;;;1.45;91.60;97959.64;1717223;82;21507;-58
2021/12/30 07:11:37;;;;;;;59.27;32.58;;;;;;;1.49;91.31;97953.66;1716426;83;21024;-58
2021/12/30 07:14:03;;;;;;;63.70;33.67;;;;;;;1.53;91.23;97948.14;1717093;83;20999;-58
2021/12/30 07:16:30;;;;;;;63.75;34.70;;;;;;;1.60;91.23;97945.41;1716393;81;21408;-58
2021/12/30 07:18:57;;;;;;;60.48;32.78;;;;;;;1.64;91.27;97942.07;1716202;83;21004;-58
2021/12/30 07:21:24;;;;;;;60.65;33.63;;;;;;;1.76;91.43;97943.45;1716998;82;21024;-58
2021/12/30 07:23:51;;;;;;;127.35;63.90;;;;;;;1.86;91.31;97941.06;1711722;83;22114;-58
2021/12/30 07:26:18;;;;;;;93.67;49.38;;;;;;;2.02;91.48;97944.97;1712067;82;21052;-58
2021/12/30 07:28:45;;;;;;;77.90;45.10;;;;;;;2.19;91.66;97942.47;1715879;82;21423;-58
2021/12/30 07:31:12;;;;;;;126.62;60.03;;;;;;;2.35;91.60;97944.50;1720658;82;20984;-58
2021/12/30 07:33:39;;;;;;;132.45;68.85;;;;;;;2.46;91.21;97941.55;1716482;83;21047;-58
2021/12/30 07:36:06;;;;;;;93.35;54.25;;;;;;;2.53;91.04;97934.24;1714532;82;21034;-58
2021/12/30 07:38:33;;;;;;;95.25;51.75;;;;;;;2.52;89.94;97931.28;1717088;82;21499;-58
2021/12/30 07:41:00;;;;;;;93.03;54.55;;;;;;;2.48;89.98;97930.13;1714480;82;20996;-58
2021/12/30 07:43:26;;;;;;;88.42;53.48;;;;;;;2.39;88.95;97936.30;1711748;82;20985;-58
2021/12/30 07:45:53;;;;;;;95.75;54.83;;;;;;;2.29;88.52;97935.23;1714997;82;21028;-58
2021/12/30 07:48:20;;;;;;;84.95;53.25;;;;;;;2.27;88.70;97940.81;1712406;82;21064;-58
2021/12/30 07:50:49;;;;;;;93.05;54.65;;;;;;;2.24;88.88;97942.62;1715651;81;21015;-58
2021/12/30 07:53:16;;;;;;;80.00;50.00;;;;;;;2.17;88.82;97951.25;1716213;83;21452;-59
2021/12/30 07:55:43;;;;;;;92.57;54.10;;;;;;;2.11;88.91;97959.64;1715406;82;21143;-58
2021/12/30 07:58:10;;;;;;;191.03;87.45;;;;;;;2.10;89.06;97955.34;1715292;82;21032;-58
2021/12/30 08:00:37;;;;;;;107.52;61.20;;;;;;;2.20;89.37;97946.77;1712410;82;21091;-58
2021/12/30 08:03:04;;;;;;;104.70;55.03;;;;;;;2.20;88.88;97946.77;1716057;82;21031;-58
2021/12/30 08:05:31;;;;;;;107.58;65.25;;;;;;;2.30;89.22;97952.91;1726251;81;21123;-58
2021/12/30 08:07:58;;;;;;;242.20;142.77;;;;;;;2.26;88.80;97949.88;1740473;81;20920;-59
2021/12/30 08:10:25;;;;;;;185.70;109.27;;;;;;;2.17;89.11;97948.05;1720495;81;20992;-58
2021/12/30 08:12:54;;;;;;;165.40;96.60;;;;;;;2.22;89.18;97956.71;1714289;82;21441;-58
2021/12/30 08:15:20;;;;;;;115.40;65.42;;;;;;;2.36;89.12;97953.34;1723280;81;21081;-58
2021/12/30 08:17:49;;;;;;;139.97;82.42;;;;;;;2.36;89.12;97953.34;1715338;82;21538;-58
2021/12/30 08:20:17;;;;;;;118.47;71.43;;;;;;;2.36;88.95;97954.67;1717512;81;21025;-58
2021/12/30 08:22:44;;;;;;;220.65;121.75;;;;;;;2.36;88.95;97954.67;1714460;81;21280;-58
2021/12/30 08:25:12;;;;;;;131.45;74.42;;;;;;;2.35;88.99;97950.37;1712087;83;21072;-59
2021/12/30 08:27:39;;;;;;;114.82;63.50;;;;;;;2.43;88.95;97955.39;1711228;81;21012;-58
2021/12/30 08:30:09;;;;;;;87.57;49.73;;;;;;;2.48;88.85;97948.33;1719652;81;21340;-59
2021/12/30 08:32:36;;;;;;;98.58;64.03;;;;;;;2.53;88.99;97946.28;1713578;82;21006;-59
2021/12/30 08:35:05;;;;;;;106.45;66.30;;;;;;;2.64;89.22;97951.35;1742927;80;21670;-58
2021/12/30 08:37:33;;;;;;;94.92;59.08;;;;;;;2.68;88.72;97945.85;1734810;81;21512;-58
2021/12/30 08:40:03;;;;;;;207.12;123.20;;;;;;;2.72;88.50;97942.99;1709650;82;21007;-58
2021/12/30 08:42:30;;;;;;;120.87;77.27;;;;;;;2.72;88.14;97938.98;1734747;82;22033;-57
2021/12/30 08:44:59;;;;;;;101.15;60.15;;;;;;;2.66;88.36;97938.59;1748274;81;21434;-57
2021/12/30 08:47:27;;;;;;;101.70;59.27;;;;;;;2.78;88.50;97940.21;1739154;81;21072;-58
2021/12/30 08:49:54;;;;;;;105.97;61.30;;;;;;;2.89;88.47;97947.14;1715833;83;21065;-58
2021/12/30 08:52:23;;;;;;;111.00;64.15;;;;;;;3.04;88.71;97942.14;1715269;82;21075;-58
2021/12/30 08:54:51;;;;;;;;;;;;;;;3.22;88.75;97947.90;1719627;82;21028;-57
2021/12/30 08:57:19;;;;;;;113.57;65.80;;;;;;;3.26;87.50;97949.08;1718536;81;20419;-57
2021/12/30 08:59:45;;;;;;;139.15;80.60;;;;;;;3.37;87.79;97949.58;1716416;82;21476;-57
2021/12/30 09:02:12;;;;;;;160.52;84.85;;;;;;;3.48;88.21;97959.98;1714399;83;20977;-57
2021/12/30 09:04:45;;;;;;;148.07;85.47;;;;;;;3.61;88.44;97959.73;1713808;81;21329;-57
2021/12/30 09:07:12;;;;;;;242.90;126.33;;;;;;;3.58;86.92;97956.17;1713613;82;21714;-57
2021/12/30 09:09:40;;;;;;;228.62;119.80;;;;;;;3.62;87.56;97949.30;1723316;82;21461;-57
2021/12/30 09:12:08;;;;;;;236.32;123.55;;;;;;;3.67;87.35;97955.59;1719612;82;20988;-58
2021/12/30 09:14:35;;;;;;;215.45;111.88;;;;;;;3.68;87.20;97962.58;1743396;81;21064;-57
2021/12/30 09:17:02;;;;;;;214.68;119.42;;;;;;;3.74;87.62;97955.44;1744412;81;21527;-57
2021/12/30 09:19:29;;;;;;;201.40;113.37;;;;;;;3.80;87.08;97954.50;1729612;80;21584;-57
2021/12/30 09:21:56;;;;;;;155.63;87.70;;;;;;;3.81;87.07;97956.13;1742325;81;21075;-57
2021/12/30 09:24:23;;;;;;;147.25;74.97;;;;;;;3.88;87.24;97953.31;1745789;81;20969;-57
2021/12/30 09:26:50;;;;;;;133.95;71.57;;;;;;;3.87;86.97;97965.09;1742533;80;21328;-57
2021/12/30 09:29:17;;;;;;;123.80;67.00;;;;;;;3.93;86.96;97964.12;1750121;80;20995;-57
2021/12/30 09:31:47;;;;;;;122.87;70.57;;;;;;;3.97;87.25;97974.67;1733236;82;21445;-57
2021/12/30 09:34:15;;;;;;;132.85;73.95;;;;;;;4.03;87.45;97972.91;1750283;80;21063;-57
2021/12/30 09:36:42;;;;;;;131.43;75.22;;;;;;;4.12;87.57;97974.97;1754924;80;20968;-57
2021/12/30 09:39:11;;;;;;;139.90;85.15;;;;;;;4.20;87.42;97976.46;1757736;80;21048;-57
2021/12/30 09:41:39;;;;;;;133.03;78.65;;;;;;;4.24;87.47;97973.05;1742129;80;20980;-58
2021/12/30 09:44:07;;;;;;;155.20;90.03;;;;;;;4.31;87.35;97968.06;1745251;80;21080;-57
2021/12/30 09:46:35;;;;;;;143.55;88.65;;;;;;;4.29;87.09;97963.48;1742746;80;20998;-57
2021/12/30 09:49:03;;;;;;;138.80;80.83;;;;;;;4.33;86.96;97968.11;1751032;80;21050;-57
2021/12/30 09:51:30;;;;;;;151.80;92.70;;;;;;;4.37;86.71;97963.09;1719171;81;21007;-57
2021/12/30 09:53:57;;;;;;;141.30;84.22;;;;;;;4.35;86.68;97957.13;1760144;79;21051;-57
2021/12/30 09:56:24;;;;;;;179.38;115.80;;;;;;;4.39;86.58;97945.69;1748235;80;21391;-57
2021/12/30 09:58:51;;;;;;;156.37;92.92;;;;;;;4.34;85.67;97940.75;1739621;81;21008;-57
2021/12/30 10:01:18;;;;;;;136.30;81.42;;;;;;;4.43;86.65;97945.48;1748060;80;20999;-57
2021/12/30 10:03:46;;;;;;;109.05;65.85;;;;;;;4.53;86.76;97945.67;1742333;80;21576;-57
2021/12/30 10:06:16;;;;;;;235.13;131.75;;;;;;;4.69;87.06;97943.23;1721761;81;21076;-57
2021/12/30 10:08:55;;;;;;;177.50;98.03;;;;;;;4.80;85.88;97945.04;1715601;81;22001;-57
2021/12/30 10:11:23;;;;;;;191.57;117.08;;;;;;;4.91;85.05;97938.77;1719117;81;21011;-57
2021/12/30 10:14:00;;;;;;;142.18;73.17;;;;;;;4.98;85.34;97942.63;1713417;83;21092;-57
2021/12/30 10:16:26;;;;;;;58.80;32.67;;;;;;;5.10;85.26;97949.52;1717458;82;21421;-57
2021/12/30 10:18:57;;;;;;;65.35;38.45;;;;;;;5.19;85.81;97939.70;1721367;82;21095;-57
2021/12/30 10:21:37;;;;;;;60.78;37.98;;;;;;;5.39;85.88;97929.26;1719721;82;21072;-57
2021/12/30 10:24:08;;;;;;;34.18;19.50;;;;;;;5.52;85.85;97932.10;1720742;81;21468;-57
2021/12/30 10:26:57;;;;;;;12.43;7.22;;;;;;;5.70;85.16;97937.17;1716165;82;21090;-57
2021/12/30 10:29:27;;;;;;;;;;;;;;;5.94;84.95;97931.03;1715185;81;21053;-57
2021/12/30 10:31:54;;;;;;;16.80;10.20;;;;;;;6.07;85.47;97932.00;1722998;82;20161;-57
2021/12/30 10:34:21;;;;;;;49.80;21.62;;;;;;;6.17;85.20;97933.98;1753222;80;21981;-57
2021/12/30 10:36:50;;;;;;;23.22;12.78;;;;;;;6.27;84.68;97940.81;1738527;82;21425;-57
2021/12/30 10:39:26;;;;;;;7.95;4.58;;;;;;;6.32;85.13;97951.61;1736027;82;20956;-57
2021/12/30 10:42:09;;;;;;;15.35;9.15;;;;;;;6.40;84.66;97944.42;1754411;80;21599;-57
2021/12/30 10:44:58;;;;;;;19.30;11.75;;;;;;;6.52;84.29;97933.52;1713228;83;21126;-57
2021/12/30 10:47:27;;;;;;;;;;;;;;;6.66;83.87;97932.01;1741444;80;22080;-57
2021/12/30 10:50:06;;;;;;;111.28;43.05;;;;;;;6.64;84.04;97929.30;1750652;80;20153;-57
2021/12/30 10:52:33;;;;;;;14.75;8.58;;;;;;;6.69;83.03;97929.36;1749817;80;20994;-57
2021/12/30 10:55:10;;;;;;;24.12;11.22;;;;;;;6.57;83.31;97923.31;1753308;80;21390;-57
2021/12/30 10:57:37;;;;;;;14.93;8.53;;;;;;;6.55;83.39;97926.27;1697181;82;21016;-57
2021/12/30 11:00:07;;;;;;;7.65;4.25;;;;;;;6.56;83.60;97931.12;1734408;80;21266;-57
2021/12/30 11:02:34;;;;;;;8.58;3.52;;;;;;;6.55;83.74;97934.34;1764673;80;22096;-57
2021/12/30 11:05:10;;;;;;;10.53;4.95;;;;;;;6.65;83.32;97929.58;1773862;80;21465;-57
2021/12/30 11:07:43;;;;;;;7.60;3.65;;;;;;;6.56;83.79;97937.31;1744663;80;21032;-57
2021/12/30 11:10:11;;;;;;;4.33;2.30;;;;;;;6.56;83.74;97933.27;1749863;80;21016;-57
2021/12/30 11:12:46;;;;;;;5.85;3.30;;;;;;;6.60;83.91;97933.59;1714350;82;21480;-57
2021/12/30 11:15:24;;;;;;;8.93;4.67;;;;;;;6.59;84.08;97944.09;1752880;80;20995;-57
2021/12/30 11:17:51;;;;;;;5.90;3.80;;;;;;;6.60;83.95;97942.48;1753793;80;20987;-57
2021/12/30 11:20:20;;;;;;;6.70;3.30;;;;;;;6.53;84.33;97944.56;1742128;81;20996;-57
2021/12/30 11:22:50;;;;;;;6.70;3.40;;;;;;;6.60;84.23;97944.36;1752603;80;21298;-57
2021/12/30 11:25:20;;;;;;;6.83;4.97;;;;;;;6.58;84.46;97947.82;1758433;80;21424;-57
2021/12/30 11:27:47;;;;;;;8.33;4.03;;;;;;;6.59;84.35;97948.94;1746810;80;21470;-57